Time;durP1;ratioP1;P1;durP2;ratioP2;P2;SDS_P1;SDS_P2;PMS_P1;PMS_P2;Temp;Humidity;BMP_temperature;BMP_pressure;BME280_temperature;BME280_humidity;BME280_pressure;Samples;Min_cycle;Max_cycle;Signal;HPM_P1;HPM_P2
2023/10/09 02:12:40;;;;;;;1999.90;999.90;;;;;;;;;;5129972;23;20238;-69
2023/10/09 02:18:39;;;;;;;1999.90;999.90;;;;;;;;;;5015328;28;20579;-69
2023/10/09 02:21:39;;;;;;;1999.90;999.90;;;;;;;;;;5015750;28;20297;-69
2023/10/09 02:24:49;;;;;;;1999.90;999.90;;;;;;;;;;5014260;28;20404;-69
2023/10/09 02:27:52;;;;;;;1999.90;999.90;;;;;;;;;;5010192;28;20214;-68
2023/10/09 02:30:41;;;;;;;1999.90;999.90;;;;;;;;;;5015303;28;20346;-69
2023/10/09 02:33:28;;;;;;;1999.90;999.90;;;;;;;;;;5015296;28;20713;-69
2023/10/09 02:36:13;;;;;;;1999.90;999.90;;;;;;;;;;5015213;28;20222;-69
2023/10/09 02:38:58;;;;;;;1999.90;999.90;;;;;;;;;;5015289;28;20211;-68
2023/10/09 02:41:49;;;;;;;1999.90;999.90;;;;;;;;;;5009233;28;20312;-67
2023/10/09 02:44:40;;;;;;;1999.90;999.90;;;;;;;;;;5015205;28;20219;-69
2023/10/09 02:47:29;;;;;;;1999.90;999.90;;;;;;;;;;5013703;28;20742;-66
2023/10/09 02:50:21;;;;;;;1999.90;999.90;;;;;;;;;;5013685;28;20223;-69
2023/10/09 02:53:09;;;;;;;1999.90;999.90;;;;;;;;;;5013060;28;20638;-69
2023/10/09 02:56:11;;;;;;;1999.90;999.90;;;;;;;;;;5010373;28;20218;-69
2023/10/09 02:59:05;;;;;;;1999.90;999.90;;;;;;;;;;5015053;28;20289;-70
2023/10/09 03:01:52;;;;;;;1999.90;999.90;;;;;;;;;;5014810;28;20223;-69
2023/10/09 03:04:39;;;;;;;1999.90;999.90;;;;;;;;;;5007709;28;20213;-69
2023/10/09 03:07:24;;;;;;;1999.90;999.90;;;;;;;;;;5014682;28;20297;-69
2023/10/09 03:10:09;;;;;;;1999.90;999.90;;;;;;;;;;5014650;28;20245;-69
2023/10/09 03:12:54;;;;;;;1999.90;999.90;;;;;;;;;;5014664;28;20217;-69
2023/10/09 03:15:39;;;;;;;1999.90;999.90;;;;;;;;;;5007689;28;20587;-68
2023/10/09 03:18:24;;;;;;;1999.90;999.90;;;;;;;;;;5013189;28;20207;-69
2023/10/09 03:21:11;;;;;;;1999.90;999.90;;;;;;;;;;5014190;28;20230;-68
2023/10/09 03:23:56;;;;;;;1999.90;999.90;;;;;;;;;;5013732;28;20564;-69
2023/10/09 03:26:44;;;;;;;1999.90;999.90;;;;;;;;;;5009110;28;20579;-69
2023/10/09 03:29:30;;;;;;;1999.90;999.90;;;;;;;;;;5013136;28;20211;-68
2023/10/09 03:32:15;;;;;;;1999.90;999.90;;;;;;;;;;5014368;28;20309;-69
2023/10/09 03:35:03;;;;;;;1999.90;999.90;;;;;;;;;;5013451;28;20257;-69
2023/10/09 03:37:49;;;;;;;1999.90;999.90;;;;;;;;;;5007333;28;20413;-69
2023/10/09 03:40:35;;;;;;;1999.90;999.90;;;;;;;;;;5013631;28;20452;-69
2023/10/09 03:43:21;;;;;;;1999.90;999.90;;;;;;;;;;5012504;28;20334;-69
2023/10/09 03:46:14;;;;;;;1999.90;999.90;;;;;;;;;;5013703;28;20211;-68
2023/10/09 03:49:02;;;;;;;1999.90;999.90;;;;;;;;;;5000893;28;20214;-68
2023/10/09 03:51:47;;;;;;;1999.90;999.90;;;;;;;;;;5007317;28;20362;-69
2023/10/09 03:54:35;;;;;;;1999.90;999.90;;;;;;;;;;5010202;28;20266;-69
2023/10/09 03:57:20;;;;;;;1999.90;999.90;;;;;;;;;;5009758;28;20211;-69
2023/10/09 04:00:10;;;;;;;1999.90;999.90;;;;;;;;;;5012478;28;20254;-69
2023/10/09 04:02:56;;;;;;;1999.90;999.90;;;;;;;;;;4994681;28;20226;-69
2023/10/09 04:05:42;;;;;;;1999.90;999.90;;;;;;;;;;5006510;28;20579;-69
2023/10/09 04:08:30;;;;;;;1999.90;999.90;;;;;;;;;;5012989;28;20289;-69
2023/10/09 04:11:17;;;;;;;1999.90;999.90;;;;;;;;;;5013286;28;20322;-69
2023/10/09 04:14:10;;;;;;;1999.90;999.90;;;;;;;;;;5012305;28;20391;-69
2023/10/09 04:17:32;;;;;;;1999.90;999.90;;;;;;;;;;5010990;28;20288;-69
2023/10/09 04:23:05;;;;;;;1999.90;999.90;;;;;;;;;;4998712;28;20689;-69
2023/10/09 04:25:51;;;;;;;1999.90;999.90;;;;;;;;;;5007124;28;20937;-68
2023/10/09 04:28:37;;;;;;;1999.90;999.90;;;;;;;;;;5012565;28;20399;-68
2023/10/09 04:31:31;;;;;;;1999.90;999.90;;;;;;;;;;5013087;28;20231;-69
2023/10/09 04:34:22;;;;;;;1999.90;999.90;;;;;;;;;;5012424;28;20693;-68
2023/10/09 04:37:24;;;;;;;1999.90;999.90;;;;;;;;;;5010232;28;20837;-69
2023/10/09 04:40:13;;;;;;;1999.90;999.90;;;;;;;;;;5007552;28;20213;-68
2023/10/09 04:42:58;;;;;;;1999.90;999.90;;;;;;;;;;5007513;28;20326;-69
2023/10/09 04:48:47;;;;;;;1999.90;999.90;;;;;;;;;;5006026;28;20210;-68
2023/10/09 04:51:36;;;;;;;1999.90;999.90;;;;;;;;;;5004149;28;20425;-69
2023/10/09 04:54:38;;;;;;;1999.90;999.90;;;;;;;;;;5012813;28;20214;-69
2023/10/09 04:57:25;;;;;;;1999.90;999.90;;;;;;;;;;5012536;28;20205;-68
2023/10/09 05:00:22;;;;;;;1999.90;999.90;;;;;;;;;;5012063;28;20699;-69
2023/10/09 05:03:11;;;;;;;1999.90;999.90;;;;;;;;;;5010784;28;20215;-69
2023/10/09 05:06:20;;;;;;;1999.90;999.90;;;;;;;;;;5012440;28;20315;-69
2023/10/09 05:09:13;;;;;;;1999.90;999.90;;;;;;;;;;5012558;28;20330;-70
2023/10/09 05:12:09;;;;;;;1999.90;999.90;;;;;;;;;;5012401;28;20243;-69
2023/10/09 05:15:08;;;;;;;1999.90;999.90;;;;;;;;;;5008727;28;20201;-69
2023/10/09 05:17:56;;;;;;;1999.90;999.90;;;;;;;;;;5001623;28;20596;-68
2023/10/09 05:21:05;;;;;;;1999.90;999.90;;;;;;;;;;5011880;28;20288;-69
2023/10/09 05:24:15;;;;;;;1999.90;999.90;;;;;;;;;;5007992;28;20211;-70
2023/10/09 05:27:12;;;;;;;1999.90;999.90;;;;;;;;;;4992340;28;20211;-70
2023/10/09 05:30:12;;;;;;;1999.90;999.90;;;;;;;;;;5005821;28;20257;-67
2023/10/09 05:33:27;;;;;;;1999.90;999.90;;;;;;;;;;5012057;28;20588;-70
2023/10/09 05:36:31;;;;;;;1999.90;999.90;;;;;;;;;;5011934;28;20202;-69
2023/10/09 05:39:22;;;;;;;1999.90;999.90;;;;;;;;;;5012434;28;20722;-70
2023/10/09 05:42:09;;;;;;;1999.90;999.90;;;;;;;;;;5012006;28;20226;-69
2023/10/09 05:48:06;;;;;;;1999.90;999.90;;;;;;;;;;5012064;28;20656;-69
2023/10/09 06:07:23;;;;;;;1999.90;999.90;;;;;;;;;;5106163;27;20434;-69
2023/10/09 06:10:10;;;;;;;1999.90;999.90;;;;;;;;;;5088768;28;20346;-70
2023/10/09 06:13:03;;;;;;;1999.90;999.90;;;;;;;;;;5061571;28;20586;-69
2023/10/09 06:16:09;;;;;;;1999.90;999.90;;;;;;;;;;5068461;28;20234;-70
2023/10/09 06:19:07;;;;;;;1999.90;999.90;;;;;;;;;;5065678;28;20286;-70
2023/10/09 06:22:56;;;;;;;1999.90;999.90;;;;;;;;;;5088491;28;20224;-68
2023/10/09 06:25:32;;;;;;;1999.90;999.90;;;;;;;;;;5074248;28;20204;-68
2023/10/09 06:28:19;;;;;;;1999.90;999.90;;;;;;;;;;5068251;28;20319;-71
2023/10/09 06:31:27;;;;;;;1999.90;999.90;;;;;;;;;;5062244;28;20224;-71
2023/10/09 06:34:15;;;;;;;1999.90;999.90;;;;;;;;;;5078429;28;20273;-71
2023/10/09 06:37:06;;;;;;;1999.90;999.90;;;;;;;;;;5088478;28;20599;-67
2023/10/09 06:39:50;;;;;;;1999.90;999.90;;;;;;;;;;5088597;28;20207;-70
2023/10/09 06:42:43;;;;;;;1999.90;999.90;;;;;;;;;;5072597;28;20264;-68
2023/10/09 06:45:43;;;;;;;1999.90;999.90;;;;;;;;;;5068069;28;20223;-70
2023/10/09 06:48:45;;;;;;;1999.90;999.90;;;;;;;;;;5068344;28;20696;-71
2023/10/09 06:51:41;;;;;;;1999.90;999.90;;;;;;;;;;5088175;28;20219;-70
2023/10/09 06:54:29;;;;;;;1999.90;999.90;;;;;;;;;;5088215;28;20204;-70
2023/10/09 06:57:18;;;;;;;1999.90;999.90;;;;;;;;;;5087504;28;20402;-70
2023/10/09 07:00:51;;;;;;;1999.90;999.90;;;;;;;;;;5068543;28;20204;-71
2023/10/09 07:03:29;;;;;;;1999.90;999.90;;;;;;;;;;5063355;28;20205;-70
2023/10/09 07:06:23;;;;;;;1999.90;999.90;;;;;;;;;;5071192;28;20220;-68
2023/10/09 07:09:19;;;;;;;1999.90;999.90;;;;;;;;;;5074232;28;20692;-69
2023/10/09 07:12:09;;;;;;;1999.90;999.90;;;;;;;;;;5060566;28;20228;-70
2023/10/09 07:16:23;;;;;;;1999.90;999.90;;;;;;;;;;5054253;28;20622;-70
2023/10/09 07:18:40;;;;;;;1999.90;999.90;;;;;;;;;;5051658;28;20701;-69
2023/10/09 07:21:28;;;;;;;1999.90;999.90;;;;;;;;;;5048831;28;20399;-70
2023/10/09 07:24:17;;;;;;;1999.90;999.90;;;;;;;;;;5054144;28;20197;-70
2023/10/09 07:27:06;;;;;;;1999.90;999.90;;;;;;;;;;5053994;28;20201;-69
2023/10/09 07:29:51;;;;;;;1999.90;999.90;;;;;;;;;;5054117;28;20287;-71
2023/10/09 07:32:36;;;;;;;1999.90;999.90;;;;;;;;;;5053916;28;20291;-71
2023/10/09 07:35:46;;;;;;;1999.90;999.90;;;;;;;;;;5046927;28;20238;-71
2023/10/09 07:38:35;;;;;;;1999.90;999.90;;;;;;;;;;5056979;28;20251;-71
2023/10/09 07:41:37;;;;;;;1999.90;999.90;;;;;;;;;;5049583;28;20225;-71
2023/10/09 07:44:37;;;;;;;1999.90;999.90;;;;;;;;;;5048991;28;20208;-70
2023/10/09 07:47:45;;;;;;;1999.90;999.90;;;;;;;;;;5053476;28;20232;-70
2023/10/09 07:50:48;;;;;;;1999.90;999.90;;;;;;;;;;5049924;28;20248;-71
2023/10/09 07:53:43;;;;;;;1999.90;999.90;;;;;;;;;;5053418;28;20582;-70
2023/10/09 07:56:30;;;;;;;1999.90;999.90;;;;;;;;;;5053047;28;20220;-71
2023/10/09 07:59:18;;;;;;;1999.90;999.90;;;;;;;;;;5047732;28;20747;-72
2023/10/09 08:02:03;;;;;;;1999.90;999.90;;;;;;;;;;5053341;28;20248;-71
2023/10/09 08:04:49;;;;;;;1999.90;999.90;;;;;;;;;;5053018;28;20629;-71
2023/10/09 08:07:35;;;;;;;1999.90;999.90;;;;;;;;;;5052743;28;20296;-72
2023/10/09 08:16:24;;;;;;;1999.90;999.90;;;;;;;;;;5050015;28;20293;-72
2023/10/09 08:19:32;;;;;;;1999.90;999.90;;;;;;;;;;5040223;28;20216;-70
2023/10/09 08:25:31;;;;;;;1999.90;999.90;;;;;;;;;;5046857;28;20665;-72
2023/10/09 08:28:39;;;;;;;1999.90;999.90;;;;;;;;;;5037764;28;20678;-71
2023/10/09 08:31:44;;;;;;;1999.90;999.90;;;;;;;;;;5047875;28;20634;-71
2023/10/09 08:34:28;;;;;;;1999.90;999.90;;;;;;;;;;5051440;28;20952;-71
2023/10/09 08:37:14;;;;;;;1999.90;999.90;;;;;;;;;;5032472;28;20230;-71
2023/10/09 08:39:59;;;;;;;1999.90;999.90;;;;;;;;;;5032712;28;20209;-70
2023/10/09 08:42:49;;;;;;;1999.90;999.90;;;;;;;;;;5033426;28;20241;-71
2023/10/09 08:45:34;;;;;;;1999.90;999.90;;;;;;;;;;5044735;28;20667;-71
2023/10/09 08:48:21;;;;;;;1999.90;999.90;;;;;;;;;;5039714;28;20260;-71
2023/10/09 08:51:07;;;;;;;1999.90;999.90;;;;;;;;;;5051279;28;20232;-72
2023/10/09 08:53:52;;;;;;;1999.90;999.90;;;;;;;;;;5050664;28;20220;-71
2023/10/09 08:56:39;;;;;;;1999.90;999.90;;;;;;;;;;5043919;28;20221;-71
2023/10/09 08:59:26;;;;;;;1999.90;999.90;;;;;;;;;;5047054;28;20620;-71
2023/10/09 09:02:11;;;;;;;1999.90;999.90;;;;;;;;;;5051953;28;20279;-71
2023/10/09 09:04:57;;;;;;;1999.90;999.90;;;;;;;;;;5051799;28;20671;-71
2023/10/09 09:07:42;;;;;;;1999.90;999.90;;;;;;;;;;5050247;28;20701;-71
2023/10/09 09:10:35;;;;;;;1999.90;999.90;;;;;;;;;;5051954;28;20228;-71
2023/10/09 09:13:20;;;;;;;1999.90;999.90;;;;;;;;;;5052104;28;20301;-71
2023/10/09 09:16:07;;;;;;;1999.90;999.90;;;;;;;;;;5051600;28;20221;-72
2023/10/09 09:18:56;;;;;;;1999.90;999.90;;;;;;;;;;5050633;28;20215;-72
2023/10/09 09:21:43;;;;;;;1999.90;999.90;;;;;;;;;;5051789;28;20237;-71
2023/10/09 09:24:30;;;;;;;1999.90;999.90;;;;;;;;;;5051816;28;20217;-72
2023/10/09 09:27:18;;;;;;;1999.90;999.90;;;;;;;;;;5051320;28;20803;-71
2023/10/09 09:30:23;;;;;;;1999.90;999.90;;;;;;;;;;5053152;28;20816;-70
2023/10/09 09:33:26;;;;;;;1999.90;999.90;;;;;;;;;;5052231;28;20240;-72
2023/10/09 09:36:12;;;;;;;1999.90;999.90;;;;;;;;;;5051416;28;20721;-71
2023/10/09 09:39:01;;;;;;;1999.90;999.90;;;;;;;;;;5051673;28;20232;-72
2023/10/09 09:41:46;;;;;;;1999.90;999.90;;;;;;;;;;5049889;28;20249;-71
2023/10/09 09:44:33;;;;;;;1999.90;999.90;;;;;;;;;;5051403;28;20209;-72
2023/10/09 09:47:23;;;;;;;1999.90;999.90;;;;;;;;;;5034248;28;20616;-71
2023/10/09 09:50:24;;;;;;;1999.90;999.90;;;;;;;;;;5050520;28;20387;-71
2023/10/09 09:53:16;;;;;;;1999.90;999.90;;;;;;;;;;5049411;28;20346;-71
2023/10/09 09:56:02;;;;;;;1999.90;999.90;;;;;;;;;;5051162;28;20223;-72
2023/10/09 09:58:53;;;;;;;1999.90;999.90;;;;;;;;;;5051380;28;20703;-72
2023/10/09 10:01:40;;;;;;;1999.90;999.90;;;;;;;;;;5058949;28;20235;-71
2023/10/09 10:04:27;;;;;;;1999.90;999.90;;;;;;;;;;5071484;28;20211;-70
2023/10/09 10:07:16;;;;;;;1999.90;999.90;;;;;;;;;;5048678;28;20215;-71
2023/10/09 10:10:08;;;;;;;1999.90;999.90;;;;;;;;;;5058149;28;20211;-72
2023/10/09 10:16:00;;;;;;;1999.90;999.90;;;;;;;;;;5048814;28;20315;-70
2023/10/09 10:18:59;;;;;;;1999.90;999.90;;;;;;;;;;5051431;28;20211;-70
2023/10/09 10:21:49;;;;;;;1999.90;999.90;;;;;;;;;;5051200;28;20371;-71
2023/10/09 10:24:54;;;;;;;1999.90;999.90;;;;;;;;;;5046167;28;20867;-70
2023/10/09 10:28:00;;;;;;;1999.90;999.90;;;;;;;;;;5046523;28;20213;-72
2023/10/09 10:30:46;;;;;;;1999.90;999.90;;;;;;;;;;5051244;28;20230;-72
2023/10/09 10:33:46;;;;;;;1999.90;999.90;;;;;;;;;;5047307;28;20216;-71
2023/10/09 10:36:31;;;;;;;1999.90;999.90;;;;;;;;;;5050657;28;20287;-72
2023/10/09 10:39:21;;;;;;;1999.90;999.90;;;;;;;;;;5051018;28;20848;-71
2023/10/09 10:42:09;;;;;;;1999.90;999.90;;;;;;;;;;5052214;28;20374;-72
2023/10/09 10:44:54;;;;;;;1999.90;999.90;;;;;;;;;;5054618;28;20711;-72
2023/10/09 10:47:40;;;;;;;1999.90;999.90;;;;;;;;;;5054371;28;20214;-71
2023/10/09 10:50:35;;;;;;;1999.90;999.90;;;;;;;;;;5046517;28;20214;-72
2023/10/09 10:53:21;;;;;;;1999.90;999.90;;;;;;;;;;5060648;28;20209;-71
2023/10/09 10:56:18;;;;;;;1999.90;999.90;;;;;;;;;;5054349;28;20225;-72
2023/10/09 10:59:13;;;;;;;1999.90;999.90;;;;;;;;;;5038758;28;20286;-70
2023/10/09 11:02:13;;;;;;;1999.90;999.90;;;;;;;;;;5052151;28;20255;-71
2023/10/09 11:05:13;;;;;;;1999.90;999.90;;;;;;;;;;5052209;28;20798;-71
2023/10/09 11:08:00;;;;;;;1999.90;999.90;;;;;;;;;;5050802;28;20452;-72
2023/10/09 11:10:50;;;;;;;1999.90;999.90;;;;;;;;;;5051662;28;20239;-71
2023/10/09 11:13:52;;;;;;;1999.90;999.90;;;;;;;;;;5054073;28;20297;-71
2023/10/09 11:16:47;;;;;;;1999.90;999.90;;;;;;;;;;5052726;28;20219;-71
2023/10/09 11:19:39;;;;;;;1999.90;999.90;;;;;;;;;;5054257;28;20289;-70
2023/10/09 11:22:29;;;;;;;1999.90;999.90;;;;;;;;;;5054069;28;20232;-71
2023/10/09 11:25:18;;;;;;;1999.90;999.90;;;;;;;;;;5054071;28;20245;-72
2023/10/09 11:28:27;;;;;;;1999.90;999.90;;;;;;;;;;5053689;28;20210;-71
2023/10/09 11:31:07;;;;;;;1999.90;999.90;;;;;;;;;;5050412;28;20343;-70
2023/10/09 11:33:53;;;;;;;1999.90;999.90;;;;;;;;;;5061945;28;20213;-71
2023/10/09 11:36:39;;;;;;;1999.90;999.90;;;;;;;;;;5053496;28;20281;-71
2023/10/09 11:39:31;;;;;;;1999.90;999.90;;;;;;;;;;5046548;28;20208;-72
2023/10/09 11:42:35;;;;;;;1999.90;999.90;;;;;;;;;;5053762;28;20732;-71
2023/10/09 11:45:24;;;;;;;1999.90;999.90;;;;;;;;;;5053849;28;20758;-71
2023/10/09 11:48:26;;;;;;;1999.90;999.90;;;;;;;;;;5053335;28;20722;-72
2023/10/09 11:51:18;;;;;;;1999.90;999.90;;;;;;;;;;5053407;28;20323;-71
2023/10/09 11:54:08;;;;;;;1999.90;999.90;;;;;;;;;;5053455;28;20209;-71
2023/10/09 11:56:55;;;;;;;1999.90;999.90;;;;;;;;;;5053319;28;20223;-72
2023/10/09 11:59:41;;;;;;;1999.90;999.90;;;;;;;;;;5053587;28;20681;-71
2023/10/09 12:02:25;;;;;;;1999.90;999.90;;;;;;;;;;5053399;28;20340;-72
2023/10/09 12:05:16;;;;;;;1999.90;999.90;;;;;;;;;;5053063;28;20225;-71
2023/10/09 12:08:08;;;;;;;1999.90;999.90;;;;;;;;;;5051605;28;20210;-72
2023/10/09 12:10:54;;;;;;;1999.90;999.90;;;;;;;;;;5053293;28;20225;-70
2023/10/09 12:13:42;;;;;;;1999.90;999.90;;;;;;;;;;5053225;28;20213;-71
2023/10/09 12:16:28;;;;;;;1999.90;999.90;;;;;;;;;;5052525;28;20421;-70
2023/10/09 12:19:13;;;;;;;1999.90;999.90;;;;;;;;;;5053128;28;20213;-72
2023/10/09 12:22:00;;;;;;;1999.90;999.90;;;;;;;;;;5052878;28;20287;-71
2023/10/09 12:24:46;;;;;;;1999.90;999.90;;;;;;;;;;5053107;28;20574;-71
2023/10/09 12:27:31;;;;;;;1999.90;999.90;;;;;;;;;;5052777;28;20216;-71
2023/10/09 12:30:16;;;;;;;1999.90;999.90;;;;;;;;;;5052981;28;20216;-70
2023/10/09 12:33:07;;;;;;;1999.90;999.90;;;;;;;;;;5052876;28;20213;-72
2023/10/09 12:35:52;;;;;;;1999.90;999.90;;;;;;;;;;5052850;28;20321;-71
2023/10/09 12:38:37;;;;;;;1999.90;999.90;;;;;;;;;;5052717;28;20201;-71
2023/10/09 12:41:26;;;;;;;1999.90;999.90;;;;;;;;;;5052626;28;20225;-71
2023/10/09 12:44:14;;;;;;;1999.90;999.90;;;;;;;;;;5052324;28;20221;-71
2023/10/09 12:47:03;;;;;;;1999.90;999.90;;;;;;;;;;5052435;28;20341;-71
2023/10/09 12:49:49;;;;;;;1999.90;999.90;;;;;;;;;;5052531;28;20279;-71
2023/10/09 12:52:37;;;;;;;1999.90;999.90;;;;;;;;;;5044875;28;20233;-69
2023/10/09 12:55:21;;;;;;;1999.90;999.90;;;;;;;;;;5054450;28;20267;-70
2023/10/09 12:58:08;;;;;;;1999.90;999.90;;;;;;;;;;5051875;28;20602;-70
2023/10/09 13:00:53;;;;;;;1999.90;999.90;;;;;;;;;;5049564;28;20766;-71
2023/10/09 13:03:39;;;;;;;1999.90;999.90;;;;;;;;;;5052085;28;20512;-70
2023/10/09 13:06:24;;;;;;;1999.90;999.90;;;;;;;;;;5058144;28;20213;-71
2023/10/09 13:09:09;;;;;;;1999.90;999.90;;;;;;;;;;5058297;28;20201;-71
2023/10/09 13:11:59;;;;;;;1999.90;999.90;;;;;;;;;;5051968;28;20232;-71
2023/10/09 13:14:49;;;;;;;1999.90;999.90;;;;;;;;;;5052143;28;20295;-71
2023/10/09 13:17:36;;;;;;;1999.90;999.90;;;;;;;;;;5051670;28;20225;-71
2023/10/09 13:20:21;;;;;;;1999.90;999.90;;;;;;;;;;5041310;28;20206;-71
2023/10/09 13:23:07;;;;;;;1999.90;999.90;;;;;;;;;;5048590;28;20283;-70
2023/10/09 13:25:53;;;;;;;1999.90;999.90;;;;;;;;;;5051115;28;20307;-71
2023/10/09 13:28:40;;;;;;;1999.90;999.90;;;;;;;;;;5032246;28;20748;-71
2023/10/09 13:31:27;;;;;;;1999.90;999.90;;;;;;;;;;5034532;28;20228;-71
2023/10/09 13:34:14;;;;;;;1999.90;999.90;;;;;;;;;;5042506;28;20213;-71
2023/10/09 13:37:11;;;;;;;1999.90;999.90;;;;;;;;;;5031770;28;20715;-71
2023/10/09 13:39:56;;;;;;;1999.90;999.90;;;;;;;;;;5032137;28;20360;-70
2023/10/09 13:42:42;;;;;;;1999.90;999.90;;;;;;;;;;5045118;28;20596;-71
2023/10/09 13:45:28;;;;;;;1999.90;999.90;;;;;;;;;;5049114;28;20225;-71
2023/10/09 13:48:17;;;;;;;1999.90;999.90;;;;;;;;;;5040158;28;20293;-71
2023/10/09 13:51:07;;;;;;;1999.90;999.90;;;;;;;;;;5050425;28;20276;-71
2023/10/09 13:53:51;;;;;;;1999.90;999.90;;;;;;;;;;5045963;28;20564;-70
2023/10/09 13:56:39;;;;;;;1999.90;999.90;;;;;;;;;;5051531;28;20754;-70
2023/10/09 13:59:25;;;;;;;1999.90;999.90;;;;;;;;;;5051586;28;20247;-71
2023/10/09 14:02:16;;;;;;;1999.90;999.90;;;;;;;;;;5043209;28;20236;-70
2023/10/09 14:05:03;;;;;;;1999.90;999.90;;;;;;;;;;5035727;28;20324;-71
2023/10/09 14:07:48;;;;;;;1999.90;999.90;;;;;;;;;;5031404;28;20221;-71
2023/10/09 14:10:38;;;;;;;1999.90;999.90;;;;;;;;;;5047833;28;20564;-71
2023/10/09 14:13:28;;;;;;;1999.90;999.90;;;;;;;;;;5031670;28;20206;-70
2023/10/09 14:16:23;;;;;;;1999.90;999.90;;;;;;;;;;5041921;28;20485;-72
2023/10/09 14:19:12;;;;;;;1999.90;999.90;;;;;;;;;;5046911;28;20702;-71
2023/10/09 14:21:59;;;;;;;1999.90;999.90;;;;;;;;;;5035541;28;20244;-72
2023/10/09 14:24:45;;;;;;;1999.90;999.90;;;;;;;;;;5048120;28;20208;-71
2023/10/09 14:27:30;;;;;;;1999.90;999.90;;;;;;;;;;5035835;28;20284;-70
2023/10/09 14:30:22;;;;;;;1999.90;999.90;;;;;;;;;;5035191;28;20706;-70
2023/10/09 14:33:12;;;;;;;1999.90;999.90;;;;;;;;;;5051235;28;20272;-69
2023/10/09 14:35:58;;;;;;;1999.90;999.90;;;;;;;;;;5045968;28;20224;-71
2023/10/09 14:38:46;;;;;;;1999.90;999.90;;;;;;;;;;5054020;28;20229;-70
2023/10/09 14:41:33;;;;;;;1999.90;999.90;;;;;;;;;;5057230;28;20413;-70
2023/10/09 14:44:18;;;;;;;1999.90;999.90;;;;;;;;;;5062062;28;20262;-70
2023/10/09 14:47:05;;;;;;;1999.90;999.90;;;;;;;;;;5059198;28;20247;-70
2023/10/09 14:49:53;;;;;;;1999.90;999.90;;;;;;;;;;5061613;28;20343;-70
2023/10/09 14:52:39;;;;;;;1999.90;999.90;;;;;;;;;;5054867;28;20879;-69
2023/10/09 14:55:28;;;;;;;1999.90;999.90;;;;;;;;;;5054286;28;20213;-70
2023/10/09 14:58:14;;;;;;;1999.90;999.90;;;;;;;;;;5054241;28;20220;-69
2023/10/09 15:01:09;;;;;;;1999.90;999.90;;;;;;;;;;5058320;28;20227;-70
2023/10/09 15:03:57;;;;;;;1999.90;999.90;;;;;;;;;;5048740;28;20870;-70
2023/10/09 15:06:41;;;;;;;1999.90;999.90;;;;;;;;;;5053565;28;20260;-71
2023/10/09 15:09:29;;;;;;;1999.90;999.90;;;;;;;;;;5054581;28;20212;-70
2023/10/09 15:12:15;;;;;;;1999.90;999.90;;;;;;;;;;5054158;28;20311;-72
2023/10/09 15:15:00;;;;;;;1999.90;999.90;;;;;;;;;;5054380;28;20275;-72
2023/10/09 15:17:47;;;;;;;1999.90;999.90;;;;;;;;;;5054051;28;20232;-71
2023/10/09 15:20:33;;;;;;;1999.90;999.90;;;;;;;;;;5053580;28;20409;-70
2023/10/09 15:23:19;;;;;;;1999.90;999.90;;;;;;;;;;5054158;28;20251;-70
2023/10/09 15:26:06;;;;;;;1999.90;999.90;;;;;;;;;;5054032;28;20209;-71
2023/10/09 15:28:53;;;;;;;1999.90;999.90;;;;;;;;;;5053561;28;20218;-71
2023/10/09 15:31:40;;;;;;;1999.90;999.90;;;;;;;;;;5053861;28;20233;-71
2023/10/09 15:34:26;;;;;;;1999.90;999.90;;;;;;;;;;5054028;28;20216;-71
2023/10/09 15:37:13;;;;;;;1999.90;999.90;;;;;;;;;;5054963;28;20228;-71
2023/10/09 15:40:04;;;;;;;1999.90;999.90;;;;;;;;;;5054036;28;20217;-71
2023/10/09 15:42:50;;;;;;;1999.90;999.90;;;;;;;;;;5053921;28;20206;-70
2023/10/09 15:45:41;;;;;;;1999.90;999.90;;;;;;;;;;5052356;28;20451;-71
2023/10/09 15:48:26;;;;;;;1999.90;999.90;;;;;;;;;;5053596;28;20750;-69
2023/10/09 15:51:14;;;;;;;1999.90;999.90;;;;;;;;;;5053852;28;20227;-71
2023/10/09 15:54:01;;;;;;;1999.90;999.90;;;;;;;;;;5053672;28;20263;-71
2023/10/09 15:56:46;;;;;;;1999.90;999.90;;;;;;;;;;5051914;28;20205;-71
2023/10/09 15:59:32;;;;;;;1999.90;999.90;;;;;;;;;;5053417;28;20263;-71
2023/10/09 16:02:18;;;;;;;1999.90;999.90;;;;;;;;;;5053046;28;20241;-71
2023/10/09 16:05:05;;;;;;;1999.90;999.90;;;;;;;;;;5053210;28;20216;-71
2023/10/09 16:07:50;;;;;;;1999.90;999.90;;;;;;;;;;5053191;28;20198;-69
2023/10/09 16:10:35;;;;;;;1999.90;999.90;;;;;;;;;;5053241;28;20211;-71
2023/10/09 16:13:21;;;;;;;1999.90;999.90;;;;;;;;;;5052993;28;20347;-72
2023/10/09 16:16:08;;;;;;;1999.90;999.90;;;;;;;;;;5052984;28;20706;-71
2023/10/09 16:18:55;;;;;;;1999.90;999.90;;;;;;;;;;5052844;28;20227;-70
2023/10/09 16:21:40;;;;;;;1999.90;999.90;;;;;;;;;;5053333;28;20316;-70
2023/10/09 16:24:25;;;;;;;1999.90;999.90;;;;;;;;;;5053695;28;20214;-71
2023/10/09 16:27:10;;;;;;;1999.90;999.90;;;;;;;;;;5053808;28;20205;-71
2023/10/09 16:29:57;;;;;;;1999.90;999.90;;;;;;;;;;5053212;28;20703;-70
2023/10/09 16:32:42;;;;;;;1999.90;999.90;;;;;;;;;;5052752;28;20696;-72
2023/10/09 16:35:28;;;;;;;1999.90;999.90;;;;;;;;;;5052598;28;20229;-71
2023/10/09 16:38:13;;;;;;;1999.90;999.90;;;;;;;;;;5051985;28;20341;-71
2023/10/09 16:41:07;;;;;;;1999.90;999.90;;;;;;;;;;5051992;28;20333;-71
2023/10/09 16:43:52;;;;;;;1999.90;999.90;;;;;;;;;;5052109;28;20273;-70
2023/10/09 16:46:39;;;;;;;1999.90;999.90;;;;;;;;;;5052368;28;20215;-71
2023/10/09 16:49:25;;;;;;;1999.90;999.90;;;;;;;;;;5052434;28;20215;-68
2023/10/09 16:52:12;;;;;;;1999.90;999.90;;;;;;;;;;5052481;28;20230;-71
2023/10/09 16:54:57;;;;;;;1999.90;999.90;;;;;;;;;;5052386;28;20292;-69
2023/10/09 16:57:43;;;;;;;1999.90;999.90;;;;;;;;;;5051423;28;20433;-71
2023/10/09 17:00:34;;;;;;;1999.90;999.90;;;;;;;;;;5052170;28;20303;-70
2023/10/09 17:03:20;;;;;;;1999.90;999.90;;;;;;;;;;5052340;28;20208;-71
2023/10/09 17:06:06;;;;;;;1999.90;999.90;;;;;;;;;;5052052;28;20224;-70
2023/10/09 17:08:52;;;;;;;1999.90;999.90;;;;;;;;;;5052272;28;20243;-71
2023/10/09 17:11:37;;;;;;;1999.90;999.90;;;;;;;;;;5052030;28;20281;-70
2023/10/09 17:14:25;;;;;;;1999.90;999.90;;;;;;;;;;5052133;28;20207;-71
2023/10/09 17:17:10;;;;;;;1999.90;999.90;;;;;;;;;;5051874;28;20230;-71
2023/10/09 17:19:55;;;;;;;1999.90;999.90;;;;;;;;;;5051902;28;20198;-70
2023/10/09 17:22:40;;;;;;;1999.90;999.90;;;;;;;;;;5051963;28;20746;-71
2023/10/09 17:25:27;;;;;;;1999.90;999.90;;;;;;;;;;5051710;28;20583;-70
2023/10/09 17:28:17;;;;;;;1999.90;999.90;;;;;;;;;;5051536;28;20273;-71
2023/10/09 17:31:03;;;;;;;1999.90;999.90;;;;;;;;;;5044741;28;20692;-70
2023/10/09 17:33:48;;;;;;;1999.90;999.90;;;;;;;;;;5050087;28;20211;-70
2023/10/09 17:36:33;;;;;;;1999.90;999.90;;;;;;;;;;5048903;28;20216;-71
2023/10/09 17:39:24;;;;;;;1999.90;999.90;;;;;;;;;;5051138;28;20224;-71
2023/10/09 17:42:12;;;;;;;1999.90;999.90;;;;;;;;;;5049245;28;20234;-70
2023/10/09 17:44:58;;;;;;;1999.90;999.90;;;;;;;;;;5051572;28;20694;-69
2023/10/09 17:47:45;;;;;;;1999.90;999.90;;;;;;;;;;5050798;28;20705;-71
2023/10/09 17:50:29;;;;;;;1999.90;999.90;;;;;;;;;;5051380;28;20338;-71
2023/10/09 17:53:16;;;;;;;1999.90;999.90;;;;;;;;;;5051302;28;20752;-70
2023/10/09 17:56:01;;;;;;;1999.90;999.90;;;;;;;;;;5051087;28;20363;-69
2023/10/09 17:58:50;;;;;;;1999.90;999.90;;;;;;;;;;5040781;28;20304;-70
2023/10/09 18:01:36;;;;;;;1999.90;999.90;;;;;;;;;;5044343;28;20231;-70
2023/10/09 18:04:21;;;;;;;1999.90;999.90;;;;;;;;;;5045025;28;20303;-70
2023/10/09 18:07:06;;;;;;;1999.90;999.90;;;;;;;;;;5038271;28;20222;-71
2023/10/09 18:09:53;;;;;;;1999.90;999.90;;;;;;;;;;5046876;28;20205;-70
2023/10/09 18:12:38;;;;;;;1999.90;999.90;;;;;;;;;;5044589;28;20419;-70
2023/10/09 18:15:27;;;;;;;1999.90;999.90;;;;;;;;;;5035601;28;20244;-70
2023/10/09 18:18:19;;;;;;;1999.90;999.90;;;;;;;;;;5042106;28;20361;-70
2023/10/09 18:21:05;;;;;;;1999.90;999.90;;;;;;;;;;5042234;28;20252;-70
2023/10/09 18:23:55;;;;;;;1999.90;999.90;;;;;;;;;;5045713;28;20238;-69
2023/10/09 18:26:40;;;;;;;1999.90;999.90;;;;;;;;;;5040809;28;20257;-70
2023/10/09 18:29:25;;;;;;;1999.90;999.90;;;;;;;;;;5043146;28;20208;-70
2023/10/09 18:32:13;;;;;;;1999.90;999.90;;;;;;;;;;5031962;28;20322;-71
2023/10/09 18:34:58;;;;;;;1999.90;999.90;;;;;;;;;;5039390;28;20342;-70
2023/10/09 18:37:43;;;;;;;1999.90;999.90;;;;;;;;;;5041171;28;20206;-70
2023/10/09 18:40:31;;;;;;;1999.90;999.90;;;;;;;;;;5046203;28;20809;-71